createdAt,value
2023-04-03T00:14:26.427Z,1.3
2023-04-03T00:29:26.440Z,1.1
2023-04-03T00:44:26.388Z,1
2023-04-03T00:59:26.435Z,1
2023-04-03T01:14:26.443Z,0.9
2023-04-03T01:29:26.410Z,0.8
2023-04-03T01:44:26.423Z,0.7
2023-04-03T01:59:26.421Z,0.7
2023-04-03T02:14:26.401Z,0.6
2023-04-03T02:29:26.360Z,0.4
2023-04-03T02:44:26.392Z,0.3
2023-04-03T02:59:26.422Z,0.2
2023-04-03T03:14:26.426Z,0.2
2023-04-03T03:29:26.439Z,0.2
2023-04-03T03:44:26.405Z,0.2
2023-04-03T03:59:26.431Z,0.1
2023-04-03T04:14:26.338Z,0
2023-04-03T04:29:26.430Z,-0.1
2023-04-03T04:44:26.423Z,-0.2
2023-04-03T04:59:26.404Z,-0.4
2023-04-03T05:14:26.423Z,-0.4
2023-04-03T05:29:26.425Z,-0.4
2023-04-03T05:44:26.350Z,-0.3
2023-04-03T05:59:26.449Z,-0.2
2023-04-03T06:14:26.438Z,-0.1
2023-04-03T06:29:26.334Z,0.1
2023-04-03T06:44:26.414Z,0.5
2023-04-03T06:59:26.413Z,0.8
2023-04-03T07:14:26.425Z,1.1
2023-04-03T07:29:26.334Z,1.4
2023-04-03T07:44:26.423Z,1.7
2023-04-03T07:59:26.413Z,2.1
2023-04-03T08:14:26.418Z,2.2
2023-04-03T08:29:26.359Z,2.7
2023-04-03T08:44:26.333Z,3
2023-04-03T08:59:26.429Z,3
2023-04-03T09:14:26.402Z,3.4
2023-04-03T09:29:26.336Z,3.6
2023-04-03T09:44:26.395Z,3.9
2023-04-03T09:59:26.337Z,4.4
2023-04-03T10:14:26.425Z,4.5
2023-04-03T10:29:26.441Z,4.8
2023-04-03T10:44:26.425Z,5
2023-04-03T10:59:26.428Z,5.5
2023-04-03T11:14:26.441Z,5.5
2023-04-03T11:29:34.688Z,5.6
2023-04-03T11:44:26.449Z,5.9
2023-04-03T11:59:26.412Z,6.4
2023-04-03T12:14:26.437Z,6.6
2023-04-03T12:29:26.420Z,6.7
2023-04-03T12:44:26.415Z,7.1
2023-04-03T12:59:26.435Z,7.5
2023-04-03T13:14:26.337Z,7.2
2023-04-03T13:29:30.840Z,7.4
2023-04-03T13:44:26.394Z,8.1
2023-04-03T13:59:26.427Z,8.4
2023-04-03T14:14:26.431Z,8.4
2023-04-03T14:29:26.410Z,10.2
2023-04-03T14:44:26.424Z,10.8
2023-04-03T14:59:26.440Z,11.4
2023-04-03T15:14:35.126Z,11.8
2023-04-03T15:29:26.340Z,11.8
2023-04-03T15:44:26.440Z,11.8
2023-04-03T15:59:26.454Z,11.2
2023-04-03T16:14:26.423Z,11.1
2023-04-03T16:29:26.679Z,11.1
2023-04-03T16:44:26.413Z,10.8
2023-04-03T16:59:26.555Z,10.8
2023-04-03T17:14:26.370Z,10.2
2023-04-03T17:29:26.413Z,8.9
2023-04-03T17:44:26.410Z,8
2023-04-03T17:59:26.445Z,7.3
2023-04-03T18:14:26.446Z,6.9
2023-04-03T18:29:26.426Z,6.5
2023-04-03T18:44:26.407Z,6.2
2023-04-03T18:59:26.460Z,5.8
2023-04-03T19:14:26.376Z,5.6
2023-04-03T19:29:26.403Z,5.2
2023-04-03T19:44:26.422Z,4.9
2023-04-03T19:59:26.378Z,4.8
2023-04-03T20:14:26.426Z,4.4
2023-04-03T20:29:26.455Z,4.2
2023-04-03T20:44:26.412Z,4.1
2023-04-03T20:59:26.435Z,3.9
2023-04-03T21:14:26.410Z,3.6
2023-04-03T21:29:26.416Z,3.4
2023-04-03T21:44:26.423Z,3.2
2023-04-03T21:59:26.490Z,3.1
2023-04-03T22:14:26.452Z,2.9
2023-04-03T22:29:26.432Z,2.8
2023-04-03T22:44:29.636Z,2.5
2023-04-03T22:59:26.453Z,2.5
2023-04-03T23:14:26.413Z,2.3
2023-04-03T23:29:26.410Z,2.2
2023-04-03T23:44:26.413Z,2
2023-04-03T23:59:26.430Z,1.8
